Time;durP1;ratioP1;P1;durP2;ratioP2;P2;SDS_P1;SDS_P2;PMS_P1;PMS_P2;Temp;Humidity;BMP_temperature;BMP_pressure;BME280_temperature;BME280_humidity;BME280_pressure;Samples;Min_cycle;Max_cycle;Signal;HPM_P1;HPM_P2
2022/06/11 00:01:24;;;;;;;6.40;3.00;;;24.90;55.20;;;;;;220269;1271;22557;-50
2022/06/11 00:06:29;;;;;;;5.10;2.70;;;24.90;55.30;;;;;;220081;1274;24241;-52
2022/06/11 00:11:31;;;;;;;7.50;2.70;;;24.90;55.20;;;;;;220046;1271;22558;-52
2022/06/11 00:16:34;;;;;;;8.10;2.80;;;24.80;55.30;;;;;;220161;1274;24390;-49
2022/06/11 00:21:41;;;;;;;4.40;2.50;;;24.80;55.30;;;;;;220205;1274;22640;-47
2022/06/11 00:26:45;;;;;;;7.60;3.00;;;24.80;55.40;;;;;;220139;1271;24959;-48
2022/06/11 00:31:48;;;;;;;5.70;2.50;;;24.80;55.70;;;;;;220013;1274;22819;-54
2022/06/11 00:36:50;;;;;;;5.00;2.70;;;24.80;55.70;;;;;;220233;1271;26054;-48
2022/06/11 00:41:55;;;;;;;4.30;2.60;;;24.80;55.40;;;;;;220144;1271;23913;-49
2022/06/11 00:47:18;;;;;;;4.10;2.40;;;24.70;55.70;;;;;;220244;1271;22583;-48
2022/06/11 00:52:28;;;;;;;3.60;2.50;;;24.70;55.60;;;;;;220103;1271;24234;-50
2022/06/11 00:57:36;;;;;;;8.70;2.70;;;24.70;55.50;;;;;;220298;1271;23489;-51
2022/06/11 01:02:39;;;;;;;4.10;2.60;;;24.70;55.50;;;;;;220306;1272;22707;-54
2022/06/11 01:08:00;;;;;;;5.10;2.50;;;24.70;55.60;;;;;;220110;1271;24297;-49
2022/06/11 01:13:09;;;;;;;3.30;2.30;;;24.70;55.50;;;;;;220096;1274;22588;-50
2022/06/11 01:18:38;;;;;;;3.20;2.10;;;24.70;55.60;;;;;;219872;1270;389531;-50
2022/06/11 01:23:43;;;;;;;6.20;2.60;;;24.60;55.60;;;;;;220085;1270;24905;-49
2022/06/11 01:29:05;;;;;;;4.30;2.40;;;24.60;55.60;;;;;;219964;1271;22708;-52
2022/06/11 01:34:28;;;;;;;3.10;2.00;;;24.60;55.60;;;;;;219655;1271;22556;-51
2022/06/11 01:39:47;;;;;;;4.60;2.30;;;24.60;55.60;;;;;;220012;1271;22580;-48
2022/06/11 01:45:27;;;;;;;8.00;2.70;;;24.60;55.70;;;;;;220141;1273;25448;-49
2022/06/11 01:50:34;;;;;;;3.60;2.10;;;24.60;56.00;;;;;;219891;1271;25333;-49
2022/06/11 01:55:49;;;;;;;6.80;2.30;;;24.50;55.60;;;;;;219936;1271;25211;-55
2022/06/11 02:01:17;;;;;;;5.70;2.10;;;24.50;55.70;;;;;;219937;1271;22841;-54
2022/06/11 02:06:50;;;;;;;6.50;2.10;;;24.50;55.60;;;;;;219803;1271;24139;-53
2022/06/11 02:12:07;;;;;;;5.00;2.50;;;24.50;55.70;;;;;;220055;1271;22564;-52
2022/06/11 02:17:18;;;;;;;4.10;2.10;;;24.50;55.70;;;;;;219950;1271;22769;-49
2022/06/11 02:22:26;;;;;;;4.40;2.10;;;24.50;56.10;;;;;;219694;1271;22562;-51
2022/06/11 02:27:31;;;;;;;3.40;2.10;;;24.50;55.70;;;;;;219854;1270;22550;-53
2022/06/11 02:32:33;;;;;;;6.50;2.10;;;24.40;55.70;;;;;;219723;1271;24313;-53
2022/06/11 02:37:41;;;;;;;3.00;2.00;;;24.40;55.70;;;;;;220005;1271;24247;-48
2022/06/11 02:42:45;;;;;;;4.80;2.50;;;24.40;56.00;;;;;;219876;1271;22574;-53
2022/06/11 02:47:50;;;;;;;5.00;2.30;;;24.40;55.70;;;;;;220081;1271;22577;-50
2022/06/11 02:52:54;;;;;;;3.90;2.40;;;24.40;55.70;;;;;;219925;1271;25327;-50
2022/06/11 02:57:57;;;;;;;8.60;2.90;;;24.40;55.60;;;;;;220056;1271;24332;-50
2022/06/11 03:03:00;;;;;;;5.50;2.30;;;24.30;55.50;;;;;;220093;1271;25412;-51
2022/06/11 03:08:04;;;;;;;5.10;2.60;;;24.30;55.80;;;;;;220231;1271;24351;-53
2022/06/11 03:13:07;;;;;;;5.30;2.80;;;24.30;56.20;;;;;;219963;1271;22593;-51
2022/06/11 03:18:10;;;;;;;4.40;2.30;;;24.30;55.40;;;;;;220013;1271;24370;-53
2022/06/11 03:23:13;;;;;;;4.00;2.50;;;24.30;55.50;;;;;;220061;1270;22676;-49
2022/06/11 03:28:20;;;;;;;3.90;2.10;;;24.30;55.60;;;;;;220034;1270;24432;-53
2022/06/11 03:33:24;;;;;;;3.10;1.80;;;24.30;55.50;;;;;;220164;1271;25707;-54
2022/06/11 03:38:26;;;;;;;3.60;2.10;;;24.30;55.60;;;;;;220216;1270;24230;-53
2022/06/11 03:43:33;;;;;;;6.80;2.40;;;24.30;55.70;;;;;;220141;1270;24265;-48
2022/06/11 03:48:42;;;;;;;7.30;2.50;;;24.30;55.50;;;;;;220168;1271;25382;-51
2022/06/11 03:53:46;;;;;;;4.30;2.50;;;24.20;55.50;;;;;;220191;1270;25524;-49
2022/06/11 03:58:49;;;;;;;3.60;1.80;;;24.20;56.00;;;;;;220019;1271;25270;-51
2022/06/11 04:03:54;;;;;;;6.30;2.90;;;24.20;55.60;;;;;;220188;1271;23034;-53
2022/06/11 04:08:57;;;;;;;3.90;2.60;;;24.20;55.60;;;;;;220222;1270;22554;-50
2022/06/11 04:13:59;;;;;;;7.80;3.00;;;24.30;55.60;;;;;;220133;1270;24374;-51
2022/06/11 04:19:06;;;;;;;5.00;2.20;;;24.20;55.70;;;;;;220181;1270;22538;-52
2022/06/11 04:24:08;;;;;;;4.50;2.20;;;24.20;55.60;;;;;;220141;1270;24235;-56
2022/06/11 04:29:13;;;;;;;5.50;2.30;;;24.20;55.70;;;;;;220114;1270;23920;-50
2022/06/11 04:34:17;;;;;;;3.70;2.30;;;24.20;56.00;;;;;;220093;1270;24444;-52
2022/06/11 04:39:22;;;;;;;3.60;2.10;;;24.20;55.70;;;;;;220045;1271;23920;-52
2022/06/11 04:44:25;;;;;;;3.90;2.00;;;24.20;56.00;;;;;;220054;1271;24292;-54
2022/06/11 04:49:27;;;;;;;4.20;2.10;;;24.20;55.70;;;;;;219910;1271;24426;-53
2022/06/11 04:54:31;;;;;;;6.50;2.40;;;24.20;55.70;;;;;;220095;1270;22945;-51
2022/06/11 04:59:42;;;;;;;3.80;2.30;;;24.20;56.00;;;;;;220049;1270;24313;-50
2022/06/11 05:04:50;;;;;;;9.80;3.00;;;24.20;56.10;;;;;;220014;1271;24320;-49
2022/06/11 05:10:00;;;;;;;5.90;2.30;;;24.20;55.70;;;;;;220143;1271;25427;-51
2022/06/11 05:15:11;;;;;;;8.20;2.80;;;24.20;55.70;;;;;;219945;1271;22551;-50
2022/06/11 05:20:22;;;;;;;3.80;2.30;;;24.30;55.70;;;;;;220031;1271;22834;-50
2022/06/11 05:25:42;;;;;;;7.40;2.90;;;24.20;55.60;;;;;;220021;1271;22632;-55
2022/06/11 05:30:54;;;;;;;6.60;2.70;;;24.20;55.50;;;;;;219898;1271;22541;-55
2022/06/11 05:36:03;;;;;;;8.00;2.50;;;24.20;55.60;;;;;;220260;1271;24244;-54
2022/06/11 05:41:19;;;;;;;4.20;2.20;;;24.30;55.70;;;;;;220076;1270;24541;-55
2022/06/11 05:46:27;;;;;;;3.30;2.10;;;24.20;55.60;;;;;;219738;1271;22615;-54
2022/06/11 05:51:46;;;;;;;3.40;2.10;;;24.30;55.70;;;;;;219945;1271;22799;-56
2022/06/11 05:56:52;;;;;;;4.90;2.30;;;24.30;55.60;;;;;;220033;1270;25113;-57
2022/06/11 06:02:11;;;;;;;5.10;2.40;;;24.30;55.80;;;;;;219804;1271;24304;-58
2022/06/11 06:07:19;;;;;;;3.80;2.10;;;24.30;55.60;;;;;;220091;1272;24351;-55
2022/06/11 06:12:24;;;;;;;4.10;2.20;;;24.30;55.60;;;;;;220237;1271;24324;-55
2022/06/11 06:17:30;;;;;;;3.10;2.30;;;24.30;55.30;;;;;;220238;1270;23915;-55
2022/06/11 06:22:43;;;;;;;7.40;3.10;;;24.30;55.60;;;;;;220026;1270;24244;-55
2022/06/11 06:27:48;;;;;;;5.00;2.30;;;24.30;55.40;;;;;;220389;1270;24911;-55
2022/06/11 06:33:00;;;;;;;6.90;2.60;;;24.30;55.40;;;;;;220152;1270;22549;-53
2022/06/11 06:38:16;;;;;;;4.20;2.10;;;24.30;55.40;;;;;;219990;1270;24460;-53
2022/06/11 06:43:37;;;;;;;5.90;2.60;;;24.30;55.40;;;;;;219962;1270;22567;-56
2022/06/11 06:48:44;;;;;;;3.40;2.00;;;24.40;55.50;;;;;;220031;1272;22555;-52
2022/06/11 06:53:52;;;;;;;4.00;2.20;;;24.40;55.50;;;;;;220255;1270;24310;-54
2022/06/11 06:58:57;;;;;;;4.10;1.90;;;24.40;55.60;;;;;;220247;1270;24124;-54
2022/06/11 07:03:59;;;;;;;3.00;1.90;;;24.40;55.80;;;;;;220153;1270;22556;-55
2022/06/11 07:09:24;;;;;;;3.80;2.00;;;24.40;55.60;;;;;;220055;1270;25274;-55
2022/06/11 07:14:33;;;;;;;3.50;2.20;;;24.40;55.50;;;;;;220165;1270;24431;-57
2022/06/11 07:19:58;;;;;;;5.70;2.10;;;24.40;55.50;;;;;;219906;1270;24326;-57
2022/06/11 07:25:07;;;;;;;7.90;2.20;;;24.40;55.50;;;;;;220277;1270;25395;-55
2022/06/11 07:30:23;;;;;;;3.20;1.90;;;24.50;55.90;;;;;;220172;1270;24195;-55
2022/06/11 07:35:34;;;;;;;2.80;1.80;;;24.50;55.80;;;;;;220166;1270;24241;-58
2022/06/11 07:40:42;;;;;;;3.40;2.20;;;24.50;55.50;;;;;;220147;1270;24242;-56
2022/06/11 07:45:48;;;;;;;2.70;1.90;;;24.50;55.40;;;;;;220289;1273;22541;-57
2022/06/11 07:50:52;;;;;;;2.40;1.60;;;24.50;55.50;;;;;;219897;1270;26818;-54
2022/06/11 07:56:00;;;;;;;4.40;2.10;;;24.50;55.70;;;;;;220293;1270;22740;-53
2022/06/11 08:01:09;;;;;;;3.40;1.70;;;24.60;55.50;;;;;;220156;1270;22970;-54
2022/06/11 08:06:13;;;;;;;6.60;2.50;;;24.60;55.40;;;;;;220294;1270;23917;-53
2022/06/11 08:11:19;;;;;;;2.60;1.50;;;24.60;55.70;;;;;;220180;1270;22579;-53
2022/06/11 08:16:24;;;;;;;3.50;1.90;;;24.60;55.30;;;;;;219936;1271;25386;-55
2022/06/11 08:21:28;;;;;;;4.40;2.30;;;24.70;54.80;;;;;;220035;1270;24324;-55
2022/06/11 08:26:31;;;;;;;3.10;2.00;;;24.60;55.20;;;;;;219941;1270;25504;-54
2022/06/11 08:31:34;;;;;;;6.70;2.20;;;24.60;55.60;;;;;;219966;1271;22557;-56
2022/06/11 08:36:44;;;;;;;4.80;2.10;;;24.70;55.30;;;;;;219974;1271;24289;-54
2022/06/11 08:41:46;;;;;;;4.90;2.50;;;24.70;55.20;;;;;;219942;1270;25343;-55
2022/06/11 08:46:50;;;;;;;6.50;2.20;;;24.70;54.90;;;;;;219926;1273;22831;-53
2022/06/11 08:52:05;;;;;;;2.40;1.60;;;24.70;55.20;;;;;;219927;1271;24266;-54
2022/06/11 08:57:37;;;;;;;3.90;2.30;;;24.80;55.20;;;;;;219931;1270;22700;-55
2022/06/11 09:03:14;;;;;;;5.40;2.10;;;24.80;55.10;;;;;;220104;1270;24129;-55
2022/06/11 09:08:25;;;;;;;2.40;1.60;;;24.80;55.10;;;;;;220205;1270;24355;-55
2022/06/11 09:13:52;;;;;;;4.40;2.20;;;24.80;55.10;;;;;;220138;1271;22548;-56
2022/06/11 09:19:06;;;;;;;2.80;1.90;;;24.80;55.10;;;;;;220023;1271;22541;-55
2022/06/11 09:24:38;;;;;;;6.70;2.30;;;24.80;55.10;;;;;;220175;1270;24329;-54
2022/06/11 09:29:41;;;;;;;2.90;1.60;;;24.90;55.00;;;;;;220150;1270;22540;-53
2022/06/11 09:34:51;;;;;;;2.90;2.00;;;24.90;55.00;;;;;;219991;1271;25141;-53
2022/06/11 09:40:18;;;;;;;4.00;1.70;;;24.90;55.00;;;;;;219933;1272;22981;-54
2022/06/11 09:45:23;;;;;;;2.60;1.50;;;24.90;55.00;;;;;;220139;1270;22663;-52
2022/06/11 09:50:42;;;;;;;4.10;1.90;;;25.00;55.00;;;;;;219697;1271;22584;-53
2022/06/11 09:56:02;;;;;;;4.40;1.70;;;25.00;54.90;;;;;;219901;1271;24381;-52
2022/06/11 10:01:13;;;;;;;3.60;2.00;;;25.00;54.90;;;;;;220126;1271;22541;-54
2022/06/11 10:06:26;;;;;;;2.20;1.60;;;25.10;55.00;;;;;;219858;1271;22569;-57
2022/06/11 10:11:36;;;;;;;2.60;1.80;;;25.00;54.90;;;;;;220217;1273;24323;-54
2022/06/11 10:16:43;;;;;;;5.00;2.00;;;25.10;54.80;;;;;;219970;1272;22545;-53
2022/06/11 10:22:24;;;;;;;4.80;2.40;;;25.10;54.80;;;;;;220236;1270;25379;-53
2022/06/11 10:27:34;;;;;;;3.40;1.80;;;25.20;55.30;;;;;;219893;1270;24433;-53
2022/06/11 10:32:47;;;;;;;2.10;1.50;;;25.20;54.70;;;;;;220062;1271;22863;-53
2022/06/11 10:38:15;;;;;;;2.40;1.70;;;25.20;54.60;;;;;;219917;1271;25334;-54
2022/06/11 10:43:41;;;;;;;4.20;1.90;;;25.30;55.00;;;;;;219847;1271;22726;-59
2022/06/11 10:48:49;;;;;;;2.50;1.80;;;25.30;54.60;;;;;;220187;1271;25398;-52
2022/06/11 10:54:21;;;;;;;3.10;1.60;;;25.40;54.60;;;;;;220034;1271;24544;-52
2022/06/11 10:59:45;;;;;;;2.80;1.70;;;25.30;54.50;;;;;;220112;1271;25549;-53
2022/06/11 11:05:07;;;;;;;8.10;2.00;;;25.40;54.90;;;;;;219986;1270;25445;-51
2022/06/11 11:10:39;;;;;;;3.40;1.60;;;25.40;54.50;;;;;;220003;1271;24063;-52
2022/06/11 11:15:46;;;;;;;5.10;2.00;;;25.40;54.90;;;;;;220148;1272;24165;-55
2022/06/11 11:20:53;;;;;;;3.30;1.80;;;25.40;54.50;;;;;;219795;1271;22561;-52
2022/06/11 11:26:11;;;;;;;2.70;1.60;;;25.40;54.40;;;;;;220097;1271;22567;-54
2022/06/11 11:31:21;;;;;;;3.50;1.70;;;25.40;54.30;;;;;;219881;1273;23046;-55
2022/06/11 11:36:26;;;;;;;;;;;25.50;54.50;;;;;;220021;1270;25524;-53
2022/06/11 11:41:33;;;;;;;6.10;2.00;;;25.50;55.00;;;;;;220036;1271;22549;-55
2022/06/11 11:46:36;;;;;;;4.90;2.10;;;25.50;54.40;;;;;;220072;1271;22559;-54
2022/06/11 11:51:40;;;;;;;7.10;2.10;;;25.50;54.40;;;;;;220068;1273;25333;-53
2022/06/11 11:56:48;;;;;;;19.20;2.90;;;25.50;54.40;;;;;;219737;1271;22722;-52
2022/06/11 12:01:59;;;;;;;5.20;1.80;;;25.60;54.50;;;;;;220034;1271;24445;-54
2022/06/11 12:07:12;;;;;;;3.10;1.60;;;25.50;54.40;;;;;;219952;1271;24244;-53
2022/06/11 12:12:31;;;;;;;2.50;1.60;;;25.60;54.50;;;;;;219898;1273;23911;-55
2022/06/11 12:17:42;;;;;;;2.60;1.70;;;25.60;54.40;;;;;;220061;1273;23055;-53
2022/06/11 12:22:52;;;;;;;5.20;2.00;;;25.70;54.40;;;;;;219720;1272;25269;-51
2022/06/11 12:27:55;;;;;;;;;;;25.70;54.40;;;;;;219824;1271;22598;-53
2022/06/11 12:33:00;;;;;;;2.20;1.40;;;25.70;54.40;;;;;;220151;1273;22542;-54
2022/06/11 12:38:15;;;;;;;2.90;1.60;;;25.70;54.40;;;;;;220132;1270;22550;-53
2022/06/11 12:43:32;;;;;;;1.50;1.20;;;25.70;54.40;;;;;;219998;1271;25414;-54
2022/06/11 12:48:51;;;;;;;2.10;1.40;;;25.70;54.40;;;;;;220014;1270;25363;-52
2022/06/11 12:54:28;;;;;;;3.10;1.50;;;25.70;54.30;;;;;;219986;1271;22580;-54
2022/06/11 12:59:49;;;;;;;2.40;1.60;;;25.70;54.40;;;;;;220259;1273;24310;-54
2022/06/11 13:05:03;;;;;;;2.10;1.50;;;25.70;54.60;;;;;;219951;1272;22579;-52
2022/06/11 13:10:44;;;;;;;3.10;2.00;;;25.80;55.10;;;;;;219958;1271;25333;-54
2022/06/11 13:16:26;;;;;;;2.10;1.40;;;25.80;54.40;;;;;;219989;1272;24420;-52
2022/06/11 13:21:47;;;;;;;3.50;1.60;;;25.70;54.40;;;;;;219441;1273;519968;-53
2022/06/11 13:27:00;;;;;;;3.90;1.80;;;25.80;55.10;;;;;;220097;1271;24290;-55
2022/06/11 13:32:31;;;;;;;4.20;1.80;;;25.80;54.50;;;;;;220106;1271;25380;-50
2022/06/11 13:38:06;;;;;;;3.30;1.50;;;25.80;54.80;;;;;;219794;1271;23971;-53
2022/06/11 13:43:36;;;;;;;2.50;1.40;;;25.80;54.80;;;;;;220053;1273;22605;-54
2022/06/11 13:49:05;;;;;;;2.30;1.50;;;25.80;54.50;;;;;;219921;1273;23915;-53
2022/06/11 14:00:31;;;;;;;2.50;1.70;;;25.80;54.50;;;;;;219988;1272;25385;-49
2022/06/11 14:05:45;;;;;;;2.40;1.60;;;25.80;54.20;;;;;;220002;1272;22541;-54
2022/06/11 14:10:53;;;;;;;2.50;1.60;;;25.80;54.40;;;;;;220034;1270;24322;-53
2022/06/11 14:16:46;;;;;;;2.40;1.50;;;25.90;54.50;;;;;;220281;1270;25274;-53
2022/06/11 14:21:56;;;;;;;1.70;1.30;;;25.80;54.50;;;;;;220113;1273;24445;-52
2022/06/11 14:27:22;;;;;;;2.70;1.50;;;25.80;54.40;;;;;;219849;1271;24358;-54
2022/06/11 14:32:53;;;;;;;2.00;1.40;;;25.80;54.80;;;;;;219874;1273;22826;-55
2022/06/11 14:38:31;;;;;;;2.10;1.40;;;25.80;54.50;;;;;;219969;1270;22793;-53
2022/06/11 14:44:01;;;;;;;1.80;1.20;;;25.80;54.50;;;;;;220238;1270;24327;-52
2022/06/11 14:49:22;;;;;;;2.90;1.50;;;25.80;54.60;;;;;;219844;1271;24727;-53
2022/06/11 14:55:03;;;;;;;2.60;1.40;;;25.80;54.70;;;;;;220018;1270;24294;-54
2022/06/11 15:00:37;;;;;;;2.90;1.60;;;25.80;54.60;;;;;;219765;1274;22567;-54
2022/06/11 15:05:59;;;;;;;;;;;25.90;54.60;;;;;;220293;1272;23954;-51
2022/06/11 15:11:18;;;;;;;2.10;1.30;;;25.80;54.40;;;;;;219937;1272;22555;-53
2022/06/11 15:16:32;;;;;;;2.30;1.40;;;25.90;53.80;;;;;;220151;1273;24426;-50
2022/06/11 15:21:49;;;;;;;3.50;1.80;;;25.90;53.30;;;;;;219944;1273;22633;-51
2022/06/11 15:27:20;;;;;;;3.50;1.60;;;25.80;53.60;;;;;;220000;1271;25199;-54
2022/06/11 15:32:29;;;;;;;2.30;1.50;;;25.80;54.50;;;;;;220001;1270;22592;-55
2022/06/11 15:37:46;;;;;;;1.80;1.20;;;25.80;54.70;;;;;;220154;1273;24303;-53
2022/06/11 15:42:50;;;;;;;2.10;1.30;;;25.80;54.80;;;;;;220082;1271;24278;-53
2022/06/11 15:48:04;;;;;;;1.90;1.30;;;25.80;54.80;;;;;;220329;1274;23068;-52
2022/06/11 15:55:12;;;;;;;5.50;2.00;;;25.90;54.90;;;;;;219793;1271;24398;-52
2022/06/11 15:59:14;;;;;;;7.90;2.20;;;25.90;54.80;;;;;;220031;1273;24392;-51
2022/06/11 16:04:28;;;;;;;;;;;25.90;54.90;;;;;;220095;1271;24445;-50
2022/06/11 16:09:33;;;;;;;1.80;1.40;;;25.90;55.00;;;;;;219804;1271;22762;-52
2022/06/11 16:14:41;;;;;;;3.40;1.60;;;25.90;55.30;;;;;;220044;1271;23975;-54
2022/06/11 16:19:59;;;;;;;2.30;1.50;;;25.90;55.20;;;;;;220276;1270;22559;-51
2022/06/11 16:25:08;;;;;;;8.20;2.10;;;25.80;54.90;;;;;;219737;1271;27566;-52
2022/06/11 16:30:23;;;;;;;4.70;1.90;;;25.90;55.80;;;;;;220215;1270;24425;-53
2022/06/11 16:35:33;;;;;;;1.80;1.30;;;25.90;55.10;;;;;;219871;1271;22551;-53
2022/06/11 16:40:39;;;;;;;2.50;1.50;;;25.80;55.10;;;;;;219680;1271;22551;-55
2022/06/11 16:45:52;;;;;;;1.80;1.20;;;25.80;55.10;;;;;;219783;1271;22571;-54
2022/06/11 16:56:39;;;;;;;3.00;1.60;;;25.80;55.20;;;;;;220159;1270;22695;-52
2022/06/11 17:01:44;;;;;;;2.70;1.50;;;25.80;55.20;;;;;;219932;1271;22631;-52
2022/06/11 17:07:04;;;;;;;1.80;1.20;;;25.80;55.00;;;;;;219761;1272;24312;-50
2022/06/11 17:12:39;;;;;;;4.40;1.70;;;25.80;55.20;;;;;;219819;1271;25383;-53
2022/06/11 17:17:48;;;;;;;2.20;1.50;;;25.80;55.50;;;;;;220162;1271;22540;-53
2022/06/11 17:22:52;;;;;;;2.10;1.40;;;25.80;55.10;;;;;;220089;1270;25320;-56
2022/06/11 17:27:56;;;;;;;3.30;1.50;;;25.80;55.10;;;;;;220032;1272;22558;-52
2022/06/11 17:33:02;;;;;;;11.40;2.40;;;25.80;55.10;;;;;;219828;1271;22551;-52
2022/06/11 17:38:04;;;;;;;2.90;1.60;;;25.80;55.40;;;;;;219696;1271;22603;-51
2022/06/11 17:43:09;;;;;;;2.50;1.60;;;25.80;55.10;;;;;;219686;1271;24319;-54
2022/06/11 17:48:12;;;;;;;3.00;1.50;;;25.80;55.10;;;;;;219930;1271;22609;-50
2022/06/11 17:53:18;;;;;;;6.90;2.00;;;25.70;54.90;;;;;;219783;1272;22582;-55
2022/06/11 17:58:29;;;;;;;5.60;1.60;;;25.70;54.90;;;;;;219609;1271;23530;-51
2022/06/11 18:03:39;;;;;;;2.40;1.40;;;25.80;55.00;;;;;;219774;1271;22594;-56
2022/06/11 18:08:52;;;;;;;3.00;1.60;;;25.80;55.20;;;;;;219975;1271;24286;-54
2022/06/11 18:13:54;;;;;;;1.50;1.20;;;25.70;55.40;;;;;;220218;1270;22547;-54
2022/06/11 18:19:01;;;;;;;11.00;2.50;;;25.70;55.10;;;;;;219857;1271;24338;-50
2022/06/11 18:29:33;;;;;;;14.10;2.30;;;25.70;55.10;;;;;;220114;1270;24209;-53
2022/06/11 18:34:43;;;;;;;4.80;1.60;;;25.70;55.10;;;;;;219878;1271;22563;-53
2022/06/11 18:39:48;;;;;;;4.30;1.40;;;25.70;55.20;;;;;;219809;1271;25271;-53
2022/06/11 18:44:51;;;;;;;4.30;1.70;;;25.70;55.20;;;;;;220080;1272;25392;-51
2022/06/11 18:50:15;;;;;;;2.20;1.20;;;25.70;55.50;;;;;;219953;1271;22562;-50
2022/06/11 18:55:18;;;;;;;2.70;1.30;;;25.70;55.20;;;;;;220176;1270;24291;-51
2022/06/11 19:00:29;;;;;;;3.80;1.50;;;25.60;55.20;;;;;;219894;1271;22562;-52
2022/06/11 19:05:33;;;;;;;7.80;2.00;;;25.70;55.30;;;;;;219740;1271;22630;-55
2022/06/11 19:10:40;;;;;;;1.90;1.20;;;25.60;55.20;;;;;;220285;1274;24066;-52
2022/06/11 19:15:42;;;;;;;3.60;1.50;;;25.60;55.50;;;;;;219995;1271;24507;-55
2022/06/11 19:20:53;;;;;;;3.90;1.70;;;25.60;55.20;;;;;;220067;1271;23307;-54
2022/06/11 19:25:59;;;;;;;2.70;1.30;;;25.60;55.20;;;;;;220004;1274;25500;-53
2022/06/11 19:31:04;;;;;;;3.40;1.40;;;25.60;55.60;;;;;;219994;1271;24550;-52
2022/06/11 19:36:12;;;;;;;3.60;1.50;;;25.60;55.30;;;;;;219938;1271;22566;-53
2022/06/11 19:41:17;;;;;;;2.20;1.30;;;25.60;55.30;;;;;;220158;1271;22776;-52
2022/06/11 19:46:19;;;;;;;27.10;3.60;;;25.60;55.70;;;;;;220067;1271;24175;-52
2022/06/11 19:51:24;;;;;;;4.00;1.70;;;25.50;55.60;;;;;;220177;1272;22598;-51
2022/06/11 19:56:30;;;;;;;2.10;1.30;;;25.50;55.40;;;;;;219902;1271;23067;-53
2022/06/11 20:01:34;;;;;;;2.30;1.40;;;25.50;55.30;;;;;;219994;1271;22571;-53
2022/06/11 20:06:39;;;;;;;2.80;1.20;;;25.50;55.40;;;;;;220075;1271;23929;-54
2022/06/11 20:11:42;;;;;;;2.90;1.50;;;25.50;55.70;;;;;;220031;1271;24202;-53
2022/06/11 20:16:47;;;;;;;2.70;1.60;;;25.50;55.30;;;;;;220045;1274;24497;-53
2022/06/11 20:21:50;;;;;;;2.70;1.40;;;25.50;55.40;;;;;;220074;1271;24654;-54
2022/06/11 20:26:53;;;;;;;2.10;1.40;;;25.50;55.40;;;;;;219992;1272;24225;-53
2022/06/11 20:32:06;;;;;;;7.20;2.00;;;25.40;55.40;;;;;;219933;1272;22555;-54
2022/06/11 20:37:10;;;;;;;10.20;2.30;;;25.50;55.50;;;;;;219991;1271;24232;-54
2022/06/11 20:42:17;;;;;;;2.90;1.40;;;25.40;55.50;;;;;;220075;1271;24453;-51
2022/06/11 20:47:22;;;;;;;6.50;2.10;;;25.40;55.50;;;;;;220000;1271;24438;-53
2022/06/11 20:52:24;;;;;;;4.70;1.80;;;25.40;55.50;;;;;;219707;1271;22713;-52
2022/06/11 20:57:27;;;;;;;4.00;1.70;;;25.40;55.50;;;;;;220046;1271;22727;-57
2022/06/11 21:02:31;;;;;;;3.20;1.60;;;25.40;55.50;;;;;;220125;1270;24280;-55
2022/06/11 21:12:57;;;;;;;5.00;1.60;;;25.40;55.50;;;;;;220005;1271;22534;-53
2022/06/11 21:18:00;;;;;;;2.80;1.70;;;25.40;55.60;;;;;;220239;1270;22934;-55
2022/06/11 21:23:04;;;;;;;7.60;1.90;;;25.40;55.60;;;;;;220256;1271;23085;-52
2022/06/11 21:28:07;;;;;;;2.50;1.60;;;25.30;55.60;;;;;;220072;1270;25311;-53
2022/06/11 21:33:10;;;;;;;4.00;1.50;;;25.40;55.50;;;;;;220109;1270;24392;-53
2022/06/11 21:38:12;;;;;;;2.40;1.80;;;25.40;55.50;;;;;;219947;1271;22629;-53
2022/06/11 21:43:25;;;;;;;4.60;1.80;;;25.40;55.60;;;;;;220138;1271;22646;-56
2022/06/11 21:48:31;;;;;;;2.40;1.70;;;25.40;55.50;;;;;;219818;1271;24444;-54
2022/06/11 21:53:33;;;;;;;6.90;2.60;;;25.30;55.50;;;;;;220010;1271;24292;-54
2022/06/11 21:58:38;;;;;;;3.60;2.00;;;25.30;55.50;;;;;;220029;1271;22559;-54
2022/06/11 22:03:42;;;;;;;3.60;2.00;;;25.30;55.50;;;;;;220104;1272;22559;-53
2022/06/11 22:08:55;;;;;;;4.00;1.80;;;25.30;55.50;;;;;;220169;1272;22662;-54
2022/06/11 22:14:05;;;;;;;3.40;1.70;;;25.30;55.80;;;;;;220042;1270;24322;-53
2022/06/11 22:19:22;;;;;;;4.20;1.80;;;25.20;55.50;;;;;;219792;1273;24546;-53
2022/06/11 22:24:44;;;;;;;2.60;1.70;;;25.30;55.60;;;;;;219990;1270;24923;-54
2022/06/11 22:29:48;;;;;;;3.90;2.00;;;25.30;55.60;;;;;;220234;1270;24358;-58
2022/06/11 22:34:53;;;;;;;4.30;2.10;;;25.30;55.60;;;;;;220104;1270;24447;-54
2022/06/11 22:40:00;;;;;;;3.50;1.70;;;25.20;55.60;;;;;;220031;1270;24270;-54
2022/06/11 22:45:09;;;;;;;3.30;1.80;;;25.20;55.70;;;;;;220085;1271;22543;-55
2022/06/11 22:50:13;;;;;;;3.10;1.80;;;25.20;55.70;;;;;;220012;1271;23262;-55
2022/06/11 22:55:19;;;;;;;4.80;1.90;;;25.20;55.70;;;;;;219740;1271;23212;-53
2022/06/11 23:00:21;;;;;;;4.60;2.00;;;25.20;55.70;;;;;;220100;1270;22534;-55
2022/06/11 23:05:25;;;;;;;7.70;2.50;;;25.20;55.80;;;;;;219881;1271;22695;-52
2022/06/11 23:10:30;;;;;;;9.30;2.40;;;25.20;55.80;;;;;;220200;1271;25266;-54
2022/06/11 23:15:33;;;;;;;5.80;2.00;;;25.20;55.80;;;;;;220283;1271;22612;-55
2022/06/11 23:20:38;;;;;;;4.40;1.90;;;25.20;56.20;;;;;;220019;1271;22697;-53
2022/06/11 23:25:42;;;;;;;2.00;1.40;;;25.20;55.90;;;;;;220158;1271;24564;-52
2022/06/11 23:30:45;;;;;;;3.60;1.90;;;25.10;55.80;;;;;;220072;1271;22541;-54
2022/06/11 23:35:49;;;;;;;4.90;2.10;;;25.10;55.90;;;;;;219999;1270;24291;-54
2022/06/11 23:40:56;;;;;;;7.30;2.20;;;25.10;55.90;;;;;;219994;1270;24269;-53
2022/06/11 23:45:59;;;;;;;5.00;1.90;;;25.10;55.90;;;;;;220081;1270;22644;-52
2022/06/11 23:51:20;;;;;;;7.40;2.20;;;25.10;55.90;;;;;;220051;1270;22530;-54
2022/06/11 23:56:24;;;;;;;4.20;1.90;;;25.10;56.00;;;;;;220052;1270;24400;-52
